Time;durP1;ratioP1;P1;durP2;ratioP2;P2;SDS_P1;SDS_P2;PMS_P1;PMS_P2;Temp;Humidity;BMP_temperature;BMP_pressure;BME280_temperature;BME280_humidity;BME280_pressure;Samples;Min_cycle;Max_cycle;Signal;HPM_P1;HPM_P2
2023/01/18 00:01:59;;;;;;;9.05;4.57;;;;;;;;;;5050336;28;20029;-66
2023/01/18 00:04:25;;;;;;;8.35;4.38;;;;;;;;;;5049901;28;20040;-66
2023/01/18 00:06:51;;;;;;;8.65;4.40;;;;;;;;;;5049998;28;20041;-66
2023/01/18 00:09:17;;;;;;;6.43;3.97;;;;;;;;;;5050375;28;20048;-66
2023/01/18 00:11:43;;;;;;;7.45;3.97;;;;;;;;;;5049896;28;20387;-66
2023/01/18 00:14:09;;;;;;;7.82;4.45;;;;;;;;;;5032286;28;20715;-66
2023/01/18 00:16:35;;;;;;;7.55;4.60;;;;;;;;;;5050122;28;20041;-67
2023/01/18 00:19:01;;;;;;;8.63;4.70;;;;;;;;;;5049907;28;20052;-67
2023/01/18 00:21:27;;;;;;;7.53;4.55;;;;;;;;;;5050318;28;20041;-67
2023/01/18 00:23:54;;;;;;;9.05;4.95;;;;;;;;;;5052169;28;20079;-66
2023/01/18 00:26:20;;;;;;;8.82;3.92;;;;;;;;;;5053775;28;20452;-66
2023/01/18 00:28:46;;;;;;;10.27;4.35;;;;;;;;;;5054559;28;20348;-66
2023/01/18 00:31:14;;;;;;;8.57;4.43;;;;;;;;;;5053847;28;20036;-66
2023/01/18 00:33:44;;;;;;;6.25;4.22;;;;;;;;;;5053569;28;20080;-66
2023/01/18 00:36:10;;;;;;;7.60;4.35;;;;;;;;;;5036379;28;20045;-66
2023/01/18 00:38:36;;;;;;;8.30;4.30;;;;;;;;;;5035951;28;20529;-66
2023/01/18 00:41:02;;;;;;;7.93;4.07;;;;;;;;;;5053662;28;20123;-66
2023/01/18 00:43:40;;;;;;;8.23;4.75;;;;;;;;;;5053865;28;20045;-66
2023/01/18 00:46:10;;;;;;;9.95;4.45;;;;;;;;;;5053937;28;20033;-66
2023/01/18 00:48:38;;;;;;;9.18;4.43;;;;;;;;;;5053648;28;20090;-66
2023/01/18 00:51:05;;;;;;;7.63;4.22;;;;;;;;;;5053802;28;20418;-66
2023/01/18 00:53:31;;;;;;;9.70;4.75;;;;;;;;;;5035526;28;20041;-66
2023/01/18 00:55:57;;;;;;;7.80;4.32;;;;;;;;;;5053399;28;20466;-66
2023/01/18 00:58:23;;;;;;;7.18;4.25;;;;;;;;;;5035669;28;20576;-66
2023/01/18 01:00:52;;;;;;;5.57;4.57;;;;;;;;;;5035734;28;20037;-66
2023/01/18 01:03:19;;;;;;;9.98;4.90;;;;;;;;;;5052917;28;20431;-66
2023/01/18 01:08:30;;;;;;;7.80;5.15;;;;;;;;;;5053527;28;20048;-66
2023/01/18 01:11:12;;;;;;;10.55;4.93;;;;;;;;;;5053007;28;20037;-66
2023/01/18 01:27:22;;;;;;;9.93;4.90;;;;;;;;;;5032646;28;20049;-66
2023/01/18 01:29:50;;;;;;;7.90;4.97;;;;;;;;;;5033081;28;20045;-66
2023/01/18 01:32:16;;;;;;;11.23;5.10;;;;;;;;;;5015012;28;20113;-66
2023/01/18 01:34:42;;;;;;;8.60;4.85;;;;;;;;;;5031346;28;20125;-66
2023/01/18 01:37:08;;;;;;;11.10;5.32;;;;;;;;;;5032679;28;20072;-66
2023/01/18 01:39:34;;;;;;;8.40;4.70;;;;;;;;;;5033184;28;20556;-66
2023/01/18 01:42:00;;;;;;;7.38;4.68;;;;;;;;;;5032600;28;20416;-66
2023/01/18 01:44:28;;;;;;;9.88;5.38;;;;;;;;;;5032830;28;20037;-67
2023/01/18 01:47:17;;;;;;;10.55;5.10;;;;;;;;;;4998999;28;20029;-66
2023/01/18 01:49:48;;;;;;;8.52;5.03;;;;;;;;;;5032550;28;20038;-66
2023/01/18 01:52:16;;;;;;;10.70;5.55;;;;;;;;;;5032873;28;20037;-66
2023/01/18 01:54:48;;;;;;;8.38;5.20;;;;;;;;;;5032385;28;20048;-66
2023/01/18 01:57:14;;;;;;;8.35;5.40;;;;;;;;;;5032506;28;20479;-66
2023/01/18 01:59:42;;;;;;;8.63;5.70;;;;;;;;;;5032367;28;20049;-66
2023/01/18 02:02:09;;;;;;;7.85;5.50;;;;;;;;;;5032648;28;20067;-66
2023/01/18 02:04:35;;;;;;;10.80;5.22;;;;;;;;;;5031798;28;20038;-66
2023/01/18 02:07:01;;;;;;;7.97;5.20;;;;;;;;;;5032563;28;20144;-66
2023/01/18 02:09:27;;;;;;;10.60;5.32;;;;;;;;;;5040531;28;20099;-66
2023/01/18 02:11:54;;;;;;;7.28;5.10;;;;;;;;;;5052010;28;20033;-66
2023/01/18 02:14:21;;;;;;;8.18;5.00;;;;;;;;;;5052131;28;20060;-66
2023/01/18 02:17:23;;;;;;;7.63;5.18;;;;;;;;;;5034257;28;20698;-66
2023/01/18 02:20:05;;;;;;;7.90;5.80;;;;;;;;;;4989686;28;20495;-66
2023/01/18 02:22:43;;;;;;;10.18;5.55;;;;;;;;;;5045949;28;20661;-66
2023/01/18 02:25:23;;;;;;;11.10;6.28;;;;;;;;;;5051661;28;20272;-66
2023/01/18 02:28:04;;;;;;;8.80;5.75;;;;;;;;;;5051999;28;20044;-66
2023/01/18 02:30:33;;;;;;;8.30;6.18;;;;;;;;;;5052053;28;20037;-66
2023/01/18 02:33:20;;;;;;;10.20;5.63;;;;;;;;;;5051112;28;20041;-66
2023/01/18 02:35:49;;;;;;;9.45;6.68;;;;;;;;;;5050799;28;20048;-66
2023/01/18 02:38:18;;;;;;;9.70;6.63;;;;;;;;;;5051795;28;20065;-66
2023/01/18 02:41:03;;;;;;;13.75;6.50;;;;;;;;;;5051119;28;20049;-66
2023/01/18 02:46:34;;;;;;;10.05;6.75;;;;;;;;;;5033245;28;20399;-66
2023/01/18 02:49:03;;;;;;;11.55;6.03;;;;;;;;;;5051128;28;20075;-66
2023/01/18 02:51:29;;;;;;;10.07;6.20;;;;;;;;;;5051638;28;20072;-66
2023/01/18 02:53:55;;;;;;;10.15;5.90;;;;;;;;;;5051535;28;20468;-66
2023/01/18 02:56:25;;;;;;;10.60;5.88;;;;;;;;;;5051175;28;20418;-66
2023/01/18 02:58:54;;;;;;;8.88;6.60;;;;;;;;;;5033384;28;20037;-66
2023/01/18 03:01:25;;;;;;;10.32;6.10;;;;;;;;;;5051317;28;20048;-66
2023/01/18 03:03:53;;;;;;;15.07;6.85;;;;;;;;;;5050741;28;20457;-66
2023/01/18 03:06:21;;;;;;;10.02;6.20;;;;;;;;;;5051079;28;20040;-66
2023/01/18 03:08:48;;;;;;;9.07;6.18;;;;;;;;;;5051026;28;20029;-66
2023/01/18 03:11:18;;;;;;;13.07;6.43;;;;;;;;;;5050659;28;20037;-66
2023/01/18 03:13:47;;;;;;;10.68;6.15;;;;;;;;;;5051048;28;20365;-66
2023/01/18 03:16:24;;;;;;;10.68;6.10;;;;;;;;;;5051062;28;20040;-66
2023/01/18 03:19:01;;;;;;;7.70;5.55;;;;;;;;;;5050743;28;20099;-66
2023/01/18 03:21:38;;;;;;;9.68;5.80;;;;;;;;;;5051086;28;20571;-66
2023/01/18 03:24:06;;;;;;;8.68;6.07;;;;;;;;;;5050444;28;20429;-66
2023/01/18 03:26:35;;;;;;;11.55;6.50;;;;;;;;;;5050783;28;20052;-66
2023/01/18 03:34:52;;;;;;;11.80;6.40;;;;;;;;;;5050768;28;20045;-66
2023/01/18 03:37:30;;;;;;;13.10;6.43;;;;;;;;;;5050440;28;20048;-66
2023/01/18 03:40:04;;;;;;;10.52;6.75;;;;;;;;;;5050442;28;20047;-66
2023/01/18 03:42:33;;;;;;;19.70;7.05;;;;;;;;;;5050198;28;20044;-66
2023/01/18 03:44:59;;;;;;;14.13;6.53;;;;;;;;;;5050334;28;20080;-66
2023/01/18 03:47:25;;;;;;;14.98;6.80;;;;;;;;;;5050234;28;20045;-66
2023/01/18 03:49:51;;;;;;;10.30;6.68;;;;;;;;;;5032444;28;20076;-66
2023/01/18 03:52:19;;;;;;;10.07;6.88;;;;;;;;;;5050545;28;20073;-66
2023/01/18 03:54:44;;;;;;;8.30;5.70;;;;;;;;;;5050160;28;20041;-66
2023/01/18 03:57:31;;;;;;;10.63;6.55;;;;;;;;;;5049991;28;20395;-66
2023/01/18 03:59:57;;;;;;;9.75;6.28;;;;;;;;;;4993138;28;20053;-66
2023/01/18 04:02:23;;;;;;;9.95;6.57;;;;;;;;;;5049959;28;20882;-66
2023/01/18 04:04:56;;;;;;;12.02;6.18;;;;;;;;;;5050410;28;20091;-66
2023/01/18 04:07:22;;;;;;;12.55;6.70;;;;;;;;;;5050391;28;20079;-66
2023/01/18 04:09:48;;;;;;;11.20;7.50;;;;;;;;;;5049730;28;20064;-66
2023/01/18 04:12:14;;;;;;;14.98;7.05;;;;;;;;;;5050332;28;20047;-66
2023/01/18 04:14:40;;;;;;;10.45;6.35;;;;;;;;;;5050343;28;20466;-66
2023/01/18 04:17:06;;;;;;;9.57;6.38;;;;;;;;;;5032149;28;20040;-66
2023/01/18 04:19:32;;;;;;;9.77;6.82;;;;;;;;;;5050096;28;20707;-66
2023/01/18 04:21:58;;;;;;;9.73;6.22;;;;;;;;;;5050466;28;20056;-66
2023/01/18 04:24:24;;;;;;;12.60;7.13;;;;;;;;;;5049477;28;20538;-66
2023/01/18 04:26:50;;;;;;;11.55;6.85;;;;;;;;;;5050114;28;20056;-66
2023/01/18 04:29:16;;;;;;;12.57;6.40;;;;;;;;;;5050335;28;20036;-66
2023/01/18 04:31:43;;;;;;;12.93;7.10;;;;;;;;;;5050038;28;20055;-67
2023/01/18 04:34:09;;;;;;;13.02;6.75;;;;;;;;;;5049997;28;20577;-67
2023/01/18 04:36:35;;;;;;;11.90;6.90;;;;;;;;;;5050387;28;20041;-67
2023/01/18 04:39:01;;;;;;;12.60;6.28;;;;;;;;;;5049745;28;20048;-66
2023/01/18 04:41:28;;;;;;;10.30;6.72;;;;;;;;;;5050244;28;20041;-66
2023/01/18 04:43:54;;;;;;;11.48;6.63;;;;;;;;;;5049784;28;20041;-66
2023/01/18 04:46:20;;;;;;;10.18;6.55;;;;;;;;;;5049873;28;20044;-66
2023/01/18 04:48:50;;;;;;;10.90;6.57;;;;;;;;;;5049913;28;20066;-66
2023/01/18 04:51:17;;;;;;;9.25;6.40;;;;;;;;;;5050246;28;20503;-66
2023/01/18 04:53:44;;;;;;;8.45;6.68;;;;;;;;;;5031417;28;20071;-66
2023/01/18 04:56:10;;;;;;;12.93;8.30;;;;;;;;;;5050179;28;20586;-66
2023/01/18 04:58:36;;;;;;;12.25;6.45;;;;;;;;;;5049918;28;20388;-66
2023/01/18 05:01:03;;;;;;;9.48;6.47;;;;;;;;;;5049558;28;20044;-66
2023/01/18 05:03:30;;;;;;;11.98;7.43;;;;;;;;;;5031514;28;20087;-66
2023/01/18 05:05:56;;;;;;;11.50;6.90;;;;;;;;;;5049736;28;20045;-66
2023/01/18 05:08:23;;;;;;;10.48;7.03;;;;;;;;;;5048364;28;20098;-66
2023/01/18 05:10:49;;;;;;;13.20;7.13;;;;;;;;;;5053133;28;20047;-66
2023/01/18 05:13:15;;;;;;;11.90;7.05;;;;;;;;;;5053053;28;20135;-67
2023/01/18 05:15:41;;;;;;;11.48;7.53;;;;;;;;;;5052986;28;20487;-67
2023/01/18 05:18:07;;;;;;;13.02;7.00;;;;;;;;;;5053482;28;20044;-66
2023/01/18 05:20:33;;;;;;;13.38;7.20;;;;;;;;;;5035105;28;20491;-66
2023/01/18 05:23:09;;;;;;;10.95;6.88;;;;;;;;;;5052695;28;20049;-66
2023/01/18 05:25:35;;;;;;;12.80;6.70;;;;;;;;;;5053031;28;20040;-66
2023/01/18 05:28:01;;;;;;;11.27;6.55;;;;;;;;;;5053215;28;20037;-66
2023/01/18 05:30:27;;;;;;;10.50;6.65;;;;;;;;;;5052446;28;20475;-66
2023/01/18 05:32:53;;;;;;;9.55;6.75;;;;;;;;;;5034977;28;20041;-66
2023/01/18 05:35:19;;;;;;;8.77;6.60;;;;;;;;;;5052896;28;20438;-66
2023/01/18 05:37:45;;;;;;;11.23;7.50;;;;;;;;;;5052432;28;20059;-66
2023/01/18 05:40:11;;;;;;;10.57;6.53;;;;;;;;;;5052488;28;20067;-66
2023/01/18 05:42:37;;;;;;;12.07;6.70;;;;;;;;;;5052950;28;20048;-66
2023/01/18 05:45:03;;;;;;;11.80;7.55;;;;;;;;;;5051623;28;20040;-66
2023/01/18 05:47:29;;;;;;;15.65;7.30;;;;;;;;;;5052706;28;20640;-66
2023/01/18 05:49:56;;;;;;;14.38;7.57;;;;;;;;;;5052388;28;20121;-66
2023/01/18 05:52:22;;;;;;;13.68;7.40;;;;;;;;;;5034324;28;20073;-66
2023/01/18 05:54:48;;;;;;;12.57;7.30;;;;;;;;;;5052528;28;20048;-66
2023/01/18 05:57:15;;;;;;;14.02;7.15;;;;;;;;;;5052652;28;20124;-66
2023/01/18 05:59:41;;;;;;;11.23;7.38;;;;;;;;;;5052183;28;20079;-66
2023/01/18 06:02:07;;;;;;;14.60;6.90;;;;;;;;;;5034668;28;20562;-66
2023/01/18 06:04:33;;;;;;;11.75;6.97;;;;;;;;;;5051845;28;20132;-66
2023/01/18 06:06:59;;;;;;;10.00;6.78;;;;;;;;;;5026978;28;20033;-66
2023/01/18 06:09:25;;;;;;;12.63;7.57;;;;;;;;;;5051383;28;20045;-66
2023/01/18 06:11:51;;;;;;;13.38;6.72;;;;;;;;;;5050793;28;20083;-66
2023/01/18 06:14:17;;;;;;;10.73;7.15;;;;;;;;;;5051596;28;20051;-66
2023/01/18 06:16:43;;;;;;;13.70;7.55;;;;;;;;;;5033014;28;20388;-66
2023/01/18 06:19:09;;;;;;;11.40;7.15;;;;;;;;;;5029613;28;20136;-67
2023/01/18 06:21:35;;;;;;;12.88;7.38;;;;;;;;;;5030625;28;20535;-67
2023/01/18 06:24:01;;;;;;;15.25;7.47;;;;;;;;;;5013157;28;20053;-67
2023/01/18 06:26:30;;;;;;;11.63;7.10;;;;;;;;;;5013569;28;20125;-67
2023/01/18 06:28:56;;;;;;;12.48;6.90;;;;;;;;;;5030808;28;20448;-67
2023/01/18 06:31:22;;;;;;;13.40;7.10;;;;;;;;;;5031714;28;20041;-67
2023/01/18 06:33:48;;;;;;;15.48;7.20;;;;;;;;;;5031239;28;20053;-67
2023/01/18 06:36:14;;;;;;;12.52;6.78;;;;;;;;;;5031164;28;20103;-67
2023/01/18 06:38:40;;;;;;;13.23;7.57;;;;;;;;;;5029118;28;20052;-67
2023/01/18 06:41:08;;;;;;;11.10;7.15;;;;;;;;;;5031321;28;20038;-67
2023/01/18 06:43:34;;;;;;;10.80;7.05;;;;;;;;;;5030514;28;20103;-66
2023/01/18 06:46:00;;;;;;;12.02;6.43;;;;;;;;;;5030794;28;20048;-66
2023/01/18 06:48:27;;;;;;;9.77;6.40;;;;;;;;;;5031159;28;20034;-66
2023/01/18 06:50:55;;;;;;;14.70;7.28;;;;;;;;;;5030955;28;20081;-66
2023/01/18 06:53:21;;;;;;;12.10;7.10;;;;;;;;;;5013288;28;20056;-66
2023/01/18 06:55:58;;;;;;;10.05;6.72;;;;;;;;;;5030721;28;20041;-66
2023/01/18 06:58:25;;;;;;;11.07;6.10;;;;;;;;;;5012597;28;20041;-66
2023/01/18 07:00:57;;;;;;;11.70;6.70;;;;;;;;;;5030499;28;20056;-66
2023/01/18 07:03:24;;;;;;;12.75;6.63;;;;;;;;;;5012799;28;20049;-66
2023/01/18 07:05:52;;;;;;;14.10;6.47;;;;;;;;;;5012538;28;20713;-66
2023/01/18 07:08:19;;;;;;;11.30;6.18;;;;;;;;;;5012467;28;20072;-66
2023/01/18 07:10:46;;;;;;;10.65;6.20;;;;;;;;;;5013332;28;20053;-66
2023/01/18 07:13:12;;;;;;;10.77;6.25;;;;;;;;;;4995767;28;20140;-66
2023/01/18 07:15:38;;;;;;;12.10;6.15;;;;;;;;;;5030665;28;20247;-66
2023/01/18 07:18:04;;;;;;;12.70;6.10;;;;;;;;;;5012240;28;20042;-66
2023/01/18 07:20:30;;;;;;;12.98;5.78;;;;;;;;;;5038744;28;20555;-66
2023/01/18 07:22:57;;;;;;;12.00;5.82;;;;;;;;;;5040867;28;20053;-66
2023/01/18 07:25:24;;;;;;;10.75;5.53;;;;;;;;;;5050606;28;20040;-66
2023/01/18 07:27:50;;;;;;;10.48;5.70;;;;;;;;;;5042642;28;20045;-66
2023/01/18 07:30:16;;;;;;;7.32;5.03;;;;;;;;;;5047617;28;20060;-65
2023/01/18 07:32:50;;;;;;;9.40;5.47;;;;;;;;;;5043687;28;20044;-66
2023/01/18 07:35:17;;;;;;;9.07;5.38;;;;;;;;;;5031692;28;20460;-65
2023/01/18 07:37:48;;;;;;;8.82;4.93;;;;;;;;;;5049581;28;20033;-66
2023/01/18 07:40:14;;;;;;;12.98;5.25;;;;;;;;;;5038373;28;20045;-65
2023/01/18 07:42:40;;;;;;;7.78;5.03;;;;;;;;;;5030686;28;20045;-66
2023/01/18 07:45:08;;;;;;;10.73;5.72;;;;;;;;;;5042239;28;20139;-66
2023/01/18 07:47:34;;;;;;;10.80;6.25;;;;;;;;;;5043181;28;20032;-66
2023/01/18 07:50:01;;;;;;;11.80;6.40;;;;;;;;;;5043251;28;20643;-66
2023/01/18 07:52:27;;;;;;;12.27;6.57;;;;;;;;;;5042339;28;20047;-66
2023/01/18 07:54:53;;;;;;;11.68;6.45;;;;;;;;;;5042549;28;20118;-66
2023/01/18 07:57:19;;;;;;;11.90;6.57;;;;;;;;;;5042688;28;20053;-66
2023/01/18 07:59:45;;;;;;;12.27;7.38;;;;;;;;;;5031131;28;20041;-66
2023/01/18 08:02:12;;;;;;;14.93;7.80;;;;;;;;;;5041997;28;20182;-67
2023/01/18 08:04:39;;;;;;;16.27;7.70;;;;;;;;;;5033832;28;20069;-67
2023/01/18 08:07:05;;;;;;;11.45;6.95;;;;;;;;;;5041853;28;20049;-66
2023/01/18 08:09:34;;;;;;;11.45;6.72;;;;;;;;;;5035628;28;20091;-66
2023/01/18 08:12:00;;;;;;;15.23;6.88;;;;;;;;;;5042168;28;20060;-66
2023/01/18 08:14:26;;;;;;;14.60;6.72;;;;;;;;;;5041678;28;20045;-66
2023/01/18 08:16:52;;;;;;;12.98;7.78;;;;;;;;;;5032057;28;20044;-66
2023/01/18 08:19:18;;;;;;;12.13;7.22;;;;;;;;;;5049250;28;20099;-66
2023/01/18 08:21:45;;;;;;;14.23;7.10;;;;;;;;;;5049537;28;20049;-65
2023/01/18 08:24:12;;;;;;;13.70;6.53;;;;;;;;;;5049217;28;20044;-66
2023/01/18 08:26:38;;;;;;;13.02;7.00;;;;;;;;;;5031168;28;20048;-66
2023/01/18 08:29:05;;;;;;;9.68;6.93;;;;;;;;;;5049014;28;20037;-66
2023/01/18 08:31:31;;;;;;;13.52;6.78;;;;;;;;;;5048450;28;20041;-66
2023/01/18 08:33:57;;;;;;;13.32;7.97;;;;;;;;;;5030972;28;20051;-66
2023/01/18 08:36:24;;;;;;;12.48;7.15;;;;;;;;;;5049345;28;20142;-66
2023/01/18 08:38:58;;;;;;;12.32;8.02;;;;;;;;;;5049714;28;20071;-66
2023/01/18 08:41:27;;;;;;;10.90;7.05;;;;;;;;;;5031216;28;20048;-65
2023/01/18 08:43:54;;;;;;;13.65;7.38;;;;;;;;;;5032355;28;20051;-65
2023/01/18 08:46:20;;;;;;;12.27;7.18;;;;;;;;;;5052975;28;20045;-65
2023/01/18 08:48:57;;;;;;;11.98;7.30;;;;;;;;;;5035578;28;20029;-66
2023/01/18 08:51:24;;;;;;;13.68;7.70;;;;;;;;;;5034590;28;20049;-66
2023/01/18 08:53:52;;;;;;;14.00;7.43;;;;;;;;;;5018207;28;20380;-66
2023/01/18 08:56:19;;;;;;;11.35;7.07;;;;;;;;;;5034496;28;20120;-66
2023/01/18 08:58:46;;;;;;;11.88;7.28;;;;;;;;;;5052335;28;20049;-66
2023/01/18 09:01:12;;;;;;;14.25;9.48;;;;;;;;;;5035219;28;20052;-66
2023/01/18 09:03:38;;;;;;;12.48;7.45;;;;;;;;;;5052090;28;20575;-66
2023/01/18 09:06:08;;;;;;;12.80;7.43;;;;;;;;;;5052441;28;20033;-65
2023/01/18 09:08:34;;;;;;;11.85;7.93;;;;;;;;;;5052889;28;20567;-65
2023/01/18 09:11:01;;;;;;;16.80;8.60;;;;;;;;;;5052882;28;20036;-65
2023/01/18 09:13:27;;;;;;;12.70;7.78;;;;;;;;;;5051595;28;20094;-65
2023/01/18 09:16:04;;;;;;;11.82;7.45;;;;;;;;;;5052339;28;20070;-66
2023/01/18 09:18:30;;;;;;;15.15;7.90;;;;;;;;;;5052406;28;20120;-66
2023/01/18 09:20:57;;;;;;;18.65;9.00;;;;;;;;;;5051988;28;20111;-65
2023/01/18 09:23:23;;;;;;;14.07;8.30;;;;;;;;;;5016934;28;20048;-65
2023/01/18 09:26:00;;;;;;;15.27;8.85;;;;;;;;;;5032226;28;20037;-65
2023/01/18 09:28:26;;;;;;;15.23;8.98;;;;;;;;;;5034476;28;20047;-66
2023/01/18 09:30:52;;;;;;;15.60;9.50;;;;;;;;;;5034638;28;20377;-66
2023/01/18 09:33:19;;;;;;;17.48;9.85;;;;;;;;;;5034441;28;20056;-66
2023/01/18 09:35:46;;;;;;;14.27;8.65;;;;;;;;;;5052127;28;20041;-66
2023/01/18 09:38:12;;;;;;;17.58;8.88;;;;;;;;;;5034533;28;20440;-67
2023/01/18 09:40:43;;;;;;;13.02;7.88;;;;;;;;;;5052159;28;20080;-66
2023/01/18 09:43:41;;;;;;;12.60;8.38;;;;;;;;;;5051583;28;20041;-66
2023/01/18 09:46:17;;;;;;;14.88;8.73;;;;;;;;;;4998200;28;20044;-66
2023/01/18 09:48:44;;;;;;;14.48;8.85;;;;;;;;;;5033716;28;20044;-66
2023/01/18 09:51:21;;;;;;;14.13;9.00;;;;;;;;;;5017760;28;20069;-66
2023/01/18 09:54:03;;;;;;;14.65;8.63;;;;;;;;;;5051712;28;20048;-65
2023/01/18 09:56:53;;;;;;;14.40;8.18;;;;;;;;;;5050486;28;20056;-66
2023/01/18 09:59:29;;;;;;;12.65;7.93;;;;;;;;;;5046024;28;20055;-66
2023/01/18 10:01:55;;;;;;;13.88;7.97;;;;;;;;;;5051323;28;20581;-65
2023/01/18 10:04:28;;;;;;;13.15;8.10;;;;;;;;;;5050730;28;20051;-66
2023/01/18 10:07:04;;;;;;;14.70;7.97;;;;;;;;;;5034153;28;20029;-66
2023/01/18 10:09:53;;;;;;;14.77;7.85;;;;;;;;;;5051303;28;20110;-65
2023/01/18 10:12:22;;;;;;;12.02;7.63;;;;;;;;;;5040078;28;20044;-67
2023/01/18 10:15:09;;;;;;;11.98;7.53;;;;;;;;;;5051435;28;20444;-66
2023/01/18 10:17:39;;;;;;;11.90;7.53;;;;;;;;;;5051086;28;20073;-66
2023/01/18 10:20:29;;;;;;;11.27;7.25;;;;;;;;;;5016419;28;20064;-66
2023/01/18 10:23:27;;;;;;;11.75;7.43;;;;;;;;;;5023571;28;20057;-66
2023/01/18 10:25:54;;;;;;;15.15;7.75;;;;;;;;;;4930766;28;20547;-66
2023/01/18 10:28:39;;;;;;;12.07;6.97;;;;;;;;;;5050729;28;20033;-66
2023/01/18 10:31:20;;;;;;;10.18;7.10;;;;;;;;;;5038396;28;20037;-66
2023/01/18 10:33:47;;;;;;;11.32;6.68;;;;;;;;;;5050269;28;20128;-66
2023/01/18 10:36:15;;;;;;;11.50;6.43;;;;;;;;;;5033225;28;20053;-65
2023/01/18 10:38:42;;;;;;;13.68;7.07;;;;;;;;;;5050319;28;20387;-67
2023/01/18 10:41:15;;;;;;;12.10;6.93;;;;;;;;;;5050495;28;20514;-66
2023/01/18 10:43:41;;;;;;;12.38;7.00;;;;;;;;;;5050078;28;20087;-66
2023/01/18 10:46:12;;;;;;;12.68;7.18;;;;;;;;;;5050338;28;20044;-66
2023/01/18 10:48:40;;;;;;;12.50;7.05;;;;;;;;;;5046042;28;20048;-67
2023/01/18 10:51:06;;;;;;;11.73;6.45;;;;;;;;;;5047633;28;20055;-65
2023/01/18 10:53:36;;;;;;;14.60;6.72;;;;;;;;;;5048433;28;20052;-65
2023/01/18 10:56:05;;;;;;;11.27;6.25;;;;;;;;;;5048059;28;20479;-65
2023/01/18 10:58:43;;;;;;;10.27;6.18;;;;;;;;;;5031360;28;20403;-66
2023/01/18 11:01:29;;;;;;;12.52;5.90;;;;;;;;;;5044426;28;20380;-66
2023/01/18 11:04:06;;;;;;;13.20;6.57;;;;;;;;;;5044691;28;20060;-65
2023/01/18 11:06:51;;;;;;;9.73;5.45;;;;;;;;;;5046000;28;20033;-65
2023/01/18 11:09:35;;;;;;;11.60;6.95;;;;;;;;;;5049495;28;20045;-66
2023/01/18 11:12:33;;;;;;;15.35;8.93;;;;;;;;;;5044626;28;20042;-65
2023/01/18 11:15:20;;;;;;;12.07;5.97;;;;;;;;;;5047855;28;20079;-65
2023/01/18 11:17:56;;;;;;;12.35;9.20;;;;;;;;;;5014384;28;20128;-65
2023/01/18 11:20:34;;;;;;;13.98;8.52;;;;;;;;;;5044555;28;20659;-66
2023/01/18 11:23:15;;;;;;;9.85;6.25;;;;;;;;;;5048516;28;20075;-65
2023/01/18 11:25:44;;;;;;;20.63;7.43;;;;;;;;;;5043257;28;20041;-66
2023/01/18 11:28:33;;;;;;;12.35;7.47;;;;;;;;;;5048903;28;20522;-66
2023/01/18 11:31:08;;;;;;;12.73;7.45;;;;;;;;;;5048247;28;20041;-66
2023/01/18 11:33:34;;;;;;;11.40;6.07;;;;;;;;;;5047816;28;20044;-67
2023/01/18 11:36:02;;;;;;;11.45;6.25;;;;;;;;;;5046929;28;20272;-66
2023/01/18 11:38:32;;;;;;;10.52;5.82;;;;;;;;;;5030806;28;20049;-67
2023/01/18 11:41:06;;;;;;;9.60;4.97;;;;;;;;;;5045203;28;20067;-66
2023/01/18 11:43:34;;;;;;;11.18;5.20;;;;;;;;;;5028492;28;20041;-67
2023/01/18 11:46:15;;;;;;;10.07;6.43;;;;;;;;;;5030855;28;20127;-66
2023/01/18 11:48:44;;;;;;;10.27;5.22;;;;;;;;;;5030573;28;20060;-66
2023/01/18 11:51:25;;;;;;;11.20;5.63;;;;;;;;;;5046830;28;20029;-67
2023/01/18 11:54:01;;;;;;;7.72;4.97;;;;;;;;;;5047434;28;20045;-66
2023/01/18 11:56:33;;;;;;;10.90;7.03;;;;;;;;;;5047603;28;20747;-66
2023/01/18 11:59:00;;;;;;;16.27;6.00;;;;;;;;;;5046682;28;20088;-65
2023/01/18 12:01:29;;;;;;;8.68;5.32;;;;;;;;;;5046455;28;20166;-66
2023/01/18 12:04:13;;;;;;;7.35;4.38;;;;;;;;;;5043842;28;20037;-67
2023/01/18 12:06:56;;;;;;;10.98;5.65;;;;;;;;;;5045822;28;20037;-66
2023/01/18 12:09:22;;;;;;;;;;;;;;;;;;5003344;28;20037;-66
2023/01/18 12:12:00;;;;;;;7.90;4.95;;;;;;;;;;5048540;28;20792;-66
2023/01/18 12:14:41;;;;;;;15.55;7.53;;;;;;;;;;5048403;28;20052;-66
2023/01/18 12:17:34;;;;;;;7.72;5.10;;;;;;;;;;5039992;28;20098;-66
2023/01/18 12:20:07;;;;;;;10.18;5.50;;;;;;;;;;5045458;28;20053;-66
2023/01/18 12:22:59;;;;;;;10.02;5.28;;;;;;;;;;5044228;28;20664;-65
2023/01/18 12:25:43;;;;;;;8.20;5.03;;;;;;;;;;5021313;28;20052;-65
2023/01/18 12:28:31;;;;;;;10.07;5.20;;;;;;;;;;5033333;28;20076;-65
2023/01/18 12:31:09;;;;;;;11.00;5.13;;;;;;;;;;5050052;28;20041;-66
2023/01/18 12:33:44;;;;;;;8.77;5.28;;;;;;;;;;5049766;28;20072;-66
2023/01/18 12:36:10;;;;;;;9.65;5.35;;;;;;;;;;5034335;28;20045;-65
2023/01/18 12:38:39;;;;;;;13.13;6.05;;;;;;;;;;5051678;28;20045;-64
2023/01/18 12:41:11;;;;;;;9.10;5.60;;;;;;;;;;5051981;28;20491;-65
2023/01/18 12:43:40;;;;;;;9.55;5.57;;;;;;;;;;5034165;28;20049;-65
2023/01/18 12:46:20;;;;;;;8.27;5.15;;;;;;;;;;5052399;28;20592;-65
2023/01/18 12:48:51;;;;;;;10.93;6.00;;;;;;;;;;5031632;28;21449;-66
2023/01/18 12:51:20;;;;;;;8.50;5.47;;;;;;;;;;5050374;28;20037;-66
2023/01/18 12:54:21;;;;;;;9.13;5.47;;;;;;;;;;5049773;28;20037;-66
2023/01/18 12:56:49;;;;;;;11.25;5.20;;;;;;;;;;4969109;28;20175;-64
2023/01/18 12:59:19;;;;;;;9.18;4.95;;;;;;;;;;5031505;28;20060;-65
2023/01/18 13:01:50;;;;;;;8.45;5.05;;;;;;;;;;5031414;28;20041;-67
2023/01/18 13:04:39;;;;;;;7.40;5.00;;;;;;;;;;5049089;28;20045;-66
2023/01/18 13:07:11;;;;;;;9.07;5.05;;;;;;;;;;5049862;28;20098;-64
2023/01/18 13:09:39;;;;;;;8.65;4.85;;;;;;;;;;5051830;28;20056;-65
2023/01/18 13:12:06;;;;;;;9.32;5.25;;;;;;;;;;5043453;28;20072;-65
2023/01/18 13:14:32;;;;;;;8.75;4.80;;;;;;;;;;5051878;28;20075;-64
2023/01/18 13:17:17;;;;;;;8.85;5.03;;;;;;;;;;5051502;28;20680;-65
2023/01/18 13:19:46;;;;;;;10.30;5.20;;;;;;;;;;5048390;28;20483;-66
2023/01/18 13:22:22;;;;;;;12.10;4.85;;;;;;;;;;5052272;28;20045;-65
2023/01/18 13:24:57;;;;;;;8.77;4.85;;;;;;;;;;5051209;28;20044;-66
2023/01/18 13:27:23;;;;;;;8.00;4.90;;;;;;;;;;5027312;28;20048;-66
2023/01/18 13:29:50;;;;;;;7.82;4.95;;;;;;;;;;5049678;28;20072;-66
2023/01/18 13:32:36;;;;;;;9.38;4.63;;;;;;;;;;5049513;28;20044;-66
2023/01/18 13:35:06;;;;;;;11.07;4.70;;;;;;;;;;5049893;28;20384;-66
2023/01/18 13:37:38;;;;;;;7.38;4.90;;;;;;;;;;5050790;28;20037;-66
2023/01/18 13:40:05;;;;;;;;;;;;;;;;;;5050856;28;20098;-65
2023/01/18 13:42:37;;;;;;;7.03;4.68;;;;;;;;;;5051793;28;19990;-66
2023/01/18 13:45:13;;;;;;;11.10;4.70;;;;;;;;;;5032939;28;20053;-66
2023/01/18 13:47:44;;;;;;;8.82;5.22;;;;;;;;;;5050815;28;20681;-66
2023/01/18 13:50:30;;;;;;;9.43;5.10;;;;;;;;;;5030649;28;20033;-67
2023/01/18 13:53:14;;;;;;;9.02;4.72;;;;;;;;;;5050124;28;20383;-66
2023/01/18 13:55:46;;;;;;;6.88;4.45;;;;;;;;;;5050200;28;20037;-66
2023/01/18 13:58:18;;;;;;;9.27;5.13;;;;;;;;;;5049006;28;20029;-67
2023/01/18 14:00:48;;;;;;;8.02;4.53;;;;;;;;;;5044555;28;20041;-66
2023/01/18 14:03:22;;;;;;;8.00;4.68;;;;;;;;;;5046759;28;20045;-66
2023/01/18 14:05:48;;;;;;;9.02;4.85;;;;;;;;;;5016247;28;20388;-66
2023/01/18 14:08:21;;;;;;;10.40;4.70;;;;;;;;;;5050227;28;20033;-67
2023/01/18 14:10:49;;;;;;;7.88;4.70;;;;;;;;;;5050364;28;20140;-68
2023/01/18 14:13:16;;;;;;;12.40;4.85;;;;;;;;;;5028238;28;20049;-68
2023/01/18 14:15:42;;;;;;;8.82;4.82;;;;;;;;;;5047852;28;20047;-68
2023/01/18 14:18:28;;;;;;;8.77;4.55;;;;;;;;;;5029015;28;20083;-67
2023/01/18 14:20:57;;;;;;;8.80;4.40;;;;;;;;;;5049086;28;20053;-67
2023/01/18 14:23:26;;;;;;;9.15;4.68;;;;;;;;;;5049261;28;20060;-66
2023/01/18 14:25:52;;;;;;;10.52;4.85;;;;;;;;;;5050919;28;20612;-66
2023/01/18 14:28:27;;;;;;;9.55;5.22;;;;;;;;;;5050287;28;20079;-67
2023/01/18 14:30:55;;;;;;;10.43;5.15;;;;;;;;;;5031625;28;20044;-66
2023/01/18 14:33:41;;;;;;;8.43;4.82;;;;;;;;;;5031813;28;20132;-66
2023/01/18 14:36:18;;;;;;;11.25;4.57;;;;;;;;;;5031721;28;20048;-66
2023/01/18 14:38:44;;;;;;;9.77;4.78;;;;;;;;;;5031753;28;20049;-65
2023/01/18 14:41:15;;;;;;;9.88;4.80;;;;;;;;;;5048173;28;20053;-66
2023/01/18 14:43:43;;;;;;;7.50;4.60;;;;;;;;;;5043531;28;20049;-67
2023/01/18 14:46:35;;;;;;;8.68;4.38;;;;;;;;;;5050175;28;20481;-66
2023/01/18 14:49:01;;;;;;;10.02;5.03;;;;;;;;;;5041927;28;20052;-66
2023/01/18 14:51:28;;;;;;;8.27;4.68;;;;;;;;;;5052261;28;20029;-65
2023/01/18 14:53:59;;;;;;;9.10;4.75;;;;;;;;;;5049804;28;20111;-66
2023/01/18 14:56:27;;;;;;;7.43;4.93;;;;;;;;;;5049630;28;20047;-67
2023/01/18 14:58:54;;;;;;;11.48;5.13;;;;;;;;;;5050221;28;20479;-67
2023/01/18 15:01:26;;;;;;;12.35;5.85;;;;;;;;;;5047416;28;20541;-66
2023/01/18 15:03:56;;;;;;;9.55;5.20;;;;;;;;;;5043721;28;20135;-67
2023/01/18 15:06:34;;;;;;;13.55;5.43;;;;;;;;;;5046322;28;20129;-67
2023/01/18 15:09:01;;;;;;;13.85;6.47;;;;;;;;;;5046955;28;20040;-66
2023/01/18 15:11:27;;;;;;;9.45;5.05;;;;;;;;;;5047861;28;20368;-67
2023/01/18 15:13:55;;;;;;;10.07;5.53;;;;;;;;;;5049378;28;20483;-66
2023/01/18 15:16:22;;;;;;;9.63;5.40;;;;;;;;;;5040762;28;20562;-66
2023/01/18 15:18:49;;;;;;;8.52;5.78;;;;;;;;;;5046060;28;20084;-66
2023/01/18 15:21:17;;;;;;;26.27;5.82;;;;;;;;;;5050017;28;20068;-66